createdAt,value
2023-02-06T00:03:23.762Z,0.40
2023-02-06T00:07:25.623Z,1.00
2023-02-06T00:11:27.643Z,1.10
2023-02-06T00:15:29.599Z,0.80
2023-02-06T00:19:31.708Z,0.00
2023-02-06T00:23:33.641Z,-0.20
2023-02-06T00:27:35.839Z,0.20
2023-02-06T00:31:37.871Z,0.30
2023-02-06T00:35:41.721Z,0.70
2023-02-06T00:39:43.993Z,1.10
2023-02-06T00:43:45.931Z,1.30
2023-02-06T00:47:47.953Z,1.20
2023-02-06T00:51:50.054Z,0.90
2023-02-06T00:55:52.035Z,0.50
2023-02-06T00:59:55.000Z,0.50
2023-02-06T01:03:56.929Z,0.30
2023-02-06T01:07:58.879Z,0.20
2023-02-06T01:12:00.867Z,0.70
2023-02-06T01:16:02.887Z,1.10
2023-02-06T01:20:07.885Z,1.00
2023-02-06T01:24:10.343Z,1.30
2023-02-06T01:28:12.856Z,1.70
2023-02-06T01:32:14.814Z,1.70
2023-02-06T01:36:17.707Z,1.80
2023-02-06T01:40:19.741Z,1.80
2023-02-06T01:44:24.585Z,1.70
2023-02-06T01:48:32.388Z,1.80
2023-02-06T01:52:34.465Z,1.70
2023-02-06T01:56:43.548Z,1.80
2023-02-06T02:00:46.760Z,1.70
2023-02-06T02:04:48.974Z,1.80
2023-02-06T02:08:54.151Z,1.90
2023-02-06T02:12:56.148Z,1.90
2023-02-06T02:17:17.130Z,1.70
2023-02-06T02:21:37.645Z,1.70
2023-02-06T02:26:21.983Z,1.70
2023-02-06T02:30:54.672Z,1.70
2023-02-06T02:35:03.024Z,1.70
2023-02-06T02:39:21.114Z,1.70
2023-02-06T02:43:55.456Z,1.30
2023-02-06T02:48:28.097Z,1.10
2023-02-06T02:52:30.121Z,1.10
2023-02-06T02:56:33.657Z,1.30
2023-02-06T03:00:43.395Z,1.10
2023-02-06T03:04:58.886Z,0.90
2023-02-06T03:09:13.126Z,0.90
2023-02-06T03:13:18.403Z,0.60
2023-02-06T03:17:47.587Z,0.60
2023-02-06T03:21:50.331Z,0.70
2023-02-06T03:25:58.401Z,0.60
2023-02-06T03:30:02.133Z,0.80
2023-02-06T03:34:19.863Z,0.70
2023-02-06T03:38:24.732Z,0.40
2023-02-06T03:42:29.557Z,-0.30
2023-02-06T03:46:34.349Z,-0.20
2023-02-06T03:50:39.884Z,-0.30
2023-02-06T03:54:47.544Z,-0.50
2023-02-06T03:58:49.588Z,-0.50
2023-02-06T04:02:52.451Z,-0.40
2023-02-06T04:07:00.709Z,-0.30
2023-02-06T04:11:02.656Z,-0.20
2023-02-06T04:15:05.127Z,-0.10
2023-02-06T04:19:07.090Z,-0.10
2023-02-06T04:23:09.178Z,-0.10
2023-02-06T04:27:13.969Z,-0.30
2023-02-06T04:31:16.107Z,-0.40
2023-02-06T04:35:18.253Z,-0.40
2023-02-06T04:39:20.302Z,-0.30
2023-02-06T04:43:22.226Z,-0.30
2023-02-06T04:47:24.210Z,-0.10
2023-02-06T04:51:26.198Z,-0.60
2023-02-06T04:55:28.387Z,-0.60
2023-02-06T04:59:30.323Z,-0.60
2023-02-06T05:03:32.309Z,-0.60
2023-02-06T05:07:35.730Z,-0.40
2023-02-06T05:11:37.718Z,-0.30
2023-02-06T05:15:39.952Z,-0.40
2023-02-06T05:19:42.120Z,-0.90
2023-02-06T05:23:44.475Z,-1.00
2023-02-06T05:27:46.710Z,-0.90
2023-02-06T05:31:48.710Z,-0.50
2023-02-06T05:35:50.676Z,-0.60
2023-02-06T05:39:52.749Z,-0.90
2023-02-06T05:43:54.669Z,-0.50
2023-02-06T05:47:56.705Z,-0.20
2023-02-06T05:51:58.720Z,-0.60
2023-02-06T05:56:00.680Z,-0.40
2023-02-06T06:00:04.038Z,-0.10
2023-02-06T06:04:14.129Z,-0.50
2023-02-06T06:08:16.183Z,-0.50
2023-02-06T06:12:18.096Z,-0.50
2023-02-06T06:16:20.046Z,-0.70
2023-02-06T06:20:22.178Z,-0.50
2023-02-06T06:24:24.469Z,-0.20
2023-02-06T06:28:26.401Z,-0.10
2023-02-06T06:32:28.301Z,-0.20
2023-02-06T06:36:30.244Z,-0.40
2023-02-06T06:40:32.267Z,-0.40
2023-02-06T06:44:34.513Z,-0.30
2023-02-06T06:48:38.220Z,-0.40
2023-02-06T06:52:40.197Z,-0.30
2023-02-06T06:56:42.651Z,-0.30
2023-02-06T07:00:44.970Z,-1.10
2023-02-06T07:04:46.916Z,-0.70
2023-02-06T07:08:48.860Z,-0.60
2023-02-06T07:12:53.523Z,-0.40
2023-02-06T07:16:56.302Z,-0.30
2023-02-06T07:20:58.388Z,-0.10
2023-02-06T07:25:00.280Z,-0.10
2023-02-06T07:29:02.196Z,-0.10
2023-02-06T07:33:07.921Z,-0.30
2023-02-06T07:37:10.173Z,-0.10
2023-02-06T07:41:12.824Z,-0.10
2023-02-06T07:45:15.084Z,0.20
2023-02-06T07:49:17.118Z,0.10
2023-02-06T07:53:20.341Z,0.30
2023-02-06T07:57:22.327Z,0.40
2023-02-06T08:01:24.429Z,0.50
2023-02-06T08:05:26.409Z,0.70
2023-02-06T08:09:28.924Z,0.80
2023-02-06T08:13:30.871Z,0.60
2023-02-06T08:17:32.764Z,0.40
2023-02-06T08:21:34.719Z,0.70
2023-02-06T08:25:36.919Z,0.40
2023-02-06T08:29:42.638Z,0.60
2023-02-06T08:33:45.187Z,0.80
2023-02-06T08:37:47.107Z,0.50
2023-02-06T08:41:49.893Z,0.70
2023-02-06T08:45:53.367Z,0.40
2023-02-06T08:49:55.454Z,0.20
2023-02-06T08:54:02.805Z,0.00
2023-02-06T08:58:05.572Z,0.60
2023-02-06T09:02:09.528Z,0.80
2023-02-06T09:06:12.311Z,0.80
2023-02-06T09:10:26.769Z,0.50
2023-02-06T09:14:30.070Z,-0.30
2023-02-06T09:18:32.202Z,-0.90
2023-02-06T09:22:35.879Z,-1.80
2023-02-06T09:26:58.146Z,-1.80
2023-02-06T09:31:01.324Z,-0.60
2023-02-06T09:35:04.570Z,-0.50
2023-02-06T09:39:08.528Z,0.10
2023-02-06T09:43:13.984Z,0.40
2023-02-06T09:47:28.895Z,-0.20
2023-02-06T09:51:40.468Z,-0.60
2023-02-06T09:55:44.214Z,-0.20
2023-02-06T09:59:56.313Z,-0.30
2023-02-06T10:04:20.863Z,0.20
2023-02-06T10:08:28.319Z,0.40
2023-02-06T10:12:45.518Z,-0.30
2023-02-06T10:16:50.303Z,-0.10
2023-02-06T10:21:14.351Z,0.30
2023-02-06T10:25:29.127Z,-0.20
2023-02-06T10:29:34.137Z,-0.30
2023-02-06T10:34:10.411Z,-0.30
2023-02-06T10:38:30.211Z,-0.90
2023-02-06T10:42:53.889Z,-0.60
2023-02-06T10:46:56.805Z,-1.30
2023-02-06T10:51:20.344Z,-1.80
2023-02-06T10:55:28.301Z,-1.20
2023-02-06T10:59:33.676Z,-0.30
2023-02-06T11:03:43.124Z,0.10
2023-02-06T11:07:57.132Z,0.30
2023-02-06T11:12:00.879Z,0.30
2023-02-06T11:16:12.910Z,0.70
2023-02-06T11:20:20.259Z,0.80
2023-02-06T11:24:24.656Z,0.70
2023-02-06T11:28:27.165Z,1.00
2023-02-06T11:32:52.811Z,0.10
2023-02-06T11:37:03.938Z,0.10
2023-02-06T11:41:19.075Z,-0.50
2023-02-06T11:45:28.351Z,0.30
2023-02-06T11:49:30.293Z,0.00
2023-02-06T11:53:34.354Z,-0.90
2023-02-06T11:57:36.322Z,-0.90
2023-02-06T12:01:43.016Z,-0.10
2023-02-06T12:05:45.275Z,-0.50
2023-02-06T12:09:47.247Z,0.00
2023-02-06T12:13:56.967Z,0.50
2023-02-06T12:18:10.013Z,-0.70
2023-02-06T12:22:24.255Z,-1.30
2023-02-06T12:26:29.526Z,-0.90
2023-02-06T12:31:17.091Z,-0.70
2023-02-06T12:35:26.746Z,-0.30
2023-02-06T12:39:34.332Z,-0.50
2023-02-06T12:43:40.868Z,-0.20
2023-02-06T12:47:58.710Z,-0.10
2023-02-06T12:52:14.632Z,0.20
2023-02-06T12:56:30.847Z,-0.10
2023-02-06T13:00:41.600Z,0.10
2023-02-06T13:04:45.976Z,-0.20
2023-02-06T13:08:58.196Z,-0.10
2023-02-06T13:13:00.203Z,0.00
2023-02-06T13:17:16.630Z,0.20
2023-02-06T13:21:29.951Z,0.60
2023-02-06T13:25:31.949Z,0.00
2023-02-06T13:29:38.657Z,0.20
2023-02-06T13:33:51.355Z,0.10
2023-02-06T13:38:12.654Z,-0.30
2023-02-06T13:42:56.889Z,-0.20
2023-02-06T13:47:57.673Z,0.20
2023-02-06T13:52:37.880Z,0.60
2023-02-06T13:56:59.881Z,0.60
2023-02-06T14:01:04.570Z,0.70
2023-02-06T14:05:11.170Z,1.20
2023-02-06T14:09:44.109Z,0.80
2023-02-06T14:14:04.559Z,0.70
2023-02-06T14:18:15.382Z,0.60
2023-02-06T14:22:43.958Z,0.90
2023-02-06T14:27:21.287Z,1.20
2023-02-06T14:31:29.645Z,0.90
2023-02-06T14:35:53.084Z,0.70
2023-02-06T14:39:57.371Z,0.80
2023-02-06T14:44:00.015Z,0.90
2023-02-06T14:48:04.827Z,1.10
2023-02-06T14:52:06.786Z,1.30
2023-02-06T14:56:24.985Z,1.50
2023-02-06T15:00:28.345Z,1.40
2023-02-06T15:04:30.684Z,1.10
2023-02-06T15:08:33.609Z,1.10
2023-02-06T15:12:36.543Z,1.20
2023-02-06T15:16:49.047Z,1.30
2023-02-06T15:20:57.321Z,1.20
2023-02-06T15:25:31.494Z,1.20
2023-02-06T15:29:33.621Z,0.30
2023-02-06T15:33:35.937Z,0.40
2023-02-06T15:37:37.868Z,0.70
2023-02-06T15:41:42.357Z,0.90
2023-02-06T15:45:45.050Z,0.80
2023-02-06T15:49:50.497Z,0.90
2023-02-06T15:54:06.613Z,0.20
2023-02-06T15:58:15.517Z,-0.20
2023-02-06T16:02:25.564Z,0.40
2023-02-06T16:06:27.859Z,0.70
2023-02-06T16:10:35.871Z,0.30
2023-02-06T16:14:52.430Z,-0.20
2023-02-06T16:18:57.376Z,0.10
2023-02-06T16:23:18.097Z,-0.10
2023-02-06T16:27:27.905Z,-0.70
2023-02-06T16:31:34.096Z,0.00
2023-02-06T16:35:36.110Z,0.40
2023-02-06T16:39:40.605Z,0.00
2023-02-06T16:43:42.580Z,-0.50
2023-02-06T16:47:44.680Z,-0.80
2023-02-06T16:51:48.611Z,-0.20
2023-02-06T16:55:51.013Z,-0.50
2023-02-06T16:59:53.008Z,0.10
2023-02-06T17:03:55.492Z,0.00
2023-02-06T17:07:57.586Z,-0.30
2023-02-06T17:11:59.551Z,-1.10
2023-02-06T17:16:01.602Z,0.00
2023-02-06T17:20:03.987Z,0.50
2023-02-06T17:24:06.215Z,-0.20
2023-02-06T17:28:10.993Z,-0.30
2023-02-06T17:32:13.381Z,-0.10
2023-02-06T17:36:29.625Z,0.00
2023-02-06T17:40:34.139Z,0.00
2023-02-06T17:44:36.143Z,-0.10
2023-02-06T17:48:42.622Z,0.40
2023-02-06T17:52:44.698Z,0.60
2023-02-06T17:56:46.668Z,0.00
2023-02-06T18:00:49.811Z,0.30
2023-02-06T18:04:54.146Z,0.20
2023-02-06T18:08:56.142Z,0.40
2023-02-06T18:12:58.135Z,0.00
2023-02-06T18:17:00.108Z,-0.40
2023-02-06T18:21:02.103Z,-0.30
2023-02-06T18:25:05.284Z,-0.70
2023-02-06T18:29:07.341Z,-1.00
2023-02-06T18:33:11.293Z,-2.40
2023-02-06T18:37:13.710Z,-3.10
2023-02-06T18:41:36.381Z,-2.20
2023-02-06T18:45:40.185Z,-2.30
2023-02-06T18:49:42.350Z,-2.40
2023-02-06T18:53:44.344Z,-1.40
2023-02-06T18:57:46.478Z,-1.90
2023-02-06T19:01:49.228Z,-3.10
2023-02-06T19:05:51.241Z,-2.50
2023-02-06T19:10:00.745Z,-2.20
2023-02-06T19:14:04.260Z,-2.60
2023-02-06T19:18:07.814Z,-2.70
2023-02-06T19:22:09.734Z,-3.20
2023-02-06T19:26:14.631Z,-3.20
2023-02-06T19:30:16.677Z,-2.30
2023-02-06T19:34:18.606Z,-2.40
2023-02-06T19:38:20.639Z,-2.30
2023-02-06T19:42:22.978Z,-3.30
2023-02-06T19:46:27.303Z,-2.70
2023-02-06T19:50:29.252Z,-3.00
2023-02-06T19:54:31.456Z,-3.10
2023-02-06T19:58:33.379Z,-3.10
2023-02-06T20:02:35.230Z,-3.40
2023-02-06T20:06:37.216Z,-2.80
2023-02-06T20:10:39.409Z,-2.30
2023-02-06T20:14:41.438Z,-2.30
2023-02-06T20:18:43.482Z,-1.30
2023-02-06T20:22:45.529Z,-0.80
2023-02-06T20:26:49.168Z,-0.60
2023-02-06T20:30:51.215Z,-0.40
2023-02-06T20:34:53.284Z,-0.40
2023-02-06T20:38:57.516Z,-0.30
2023-02-06T20:42:59.470Z,-0.30
2023-02-06T20:47:01.585Z,-0.20
2023-02-06T20:51:05.352Z,-0.40
2023-02-06T20:55:07.654Z,-0.20
2023-02-06T20:59:13.419Z,-0.10
2023-02-06T21:03:15.355Z,-0.50
2023-02-06T21:07:20.562Z,-0.50
2023-02-06T21:11:23.081Z,-0.50
2023-02-06T21:15:25.309Z,-0.40
2023-02-06T21:19:29.220Z,-0.20
2023-02-06T21:23:31.125Z,-0.40
2023-02-06T21:27:33.154Z,-0.50
2023-02-06T21:31:38.320Z,-0.50
2023-02-06T21:35:40.706Z,-1.30
2023-02-06T21:39:42.767Z,-1.50
2023-02-06T21:43:45.444Z,-1.60
2023-02-06T21:47:47.339Z,-1.30
2023-02-06T21:51:50.442Z,-1.50
2023-02-06T21:55:52.397Z,-1.30
2023-02-06T21:59:54.368Z,-1.40
2023-02-06T22:03:57.295Z,-1.40
2023-02-06T22:07:59.277Z,-1.20
2023-02-06T22:12:01.788Z,-1.10
2023-02-06T22:16:03.846Z,-1.00
2023-02-06T22:20:06.423Z,-1.10
2023-02-06T22:24:11.128Z,-1.30
2023-02-06T22:28:13.134Z,-1.30
2023-02-06T22:32:15.097Z,-1.20
2023-02-06T22:36:20.295Z,-1.30
2023-02-06T22:40:22.190Z,-1.30
2023-02-06T22:44:24.162Z,-1.30
2023-02-06T22:48:26.261Z,-1.00
2023-02-06T22:52:46.812Z,-1.00
2023-02-06T22:56:49.119Z,-1.00
2023-02-06T23:00:51.094Z,-0.90
2023-02-06T23:04:53.081Z,-1.00
2023-02-06T23:08:56.461Z,-1.00
2023-02-06T23:12:58.463Z,-0.90
2023-02-06T23:17:01.366Z,-1.40
2023-02-06T23:21:07.524Z,-2.20
2023-02-06T23:25:10.230Z,-2.40
2023-02-06T23:29:15.868Z,-2.50
2023-02-06T23:33:18.515Z,-3.90
2023-02-06T23:37:20.420Z,-3.30
2023-02-06T23:41:25.003Z,-2.70
2023-02-06T23:45:27.070Z,-2.90
2023-02-06T23:49:30.177Z,-3.00
2023-02-06T23:53:32.180Z,-3.80
2023-02-06T23:57:39.005Z,-4.30
